createdAt,value
2022-08-23T00:00:00.105Z,4.10
2022-08-23T00:02:29.487Z,3.73
2022-08-23T00:05:07.751Z,3.67
2022-08-23T00:07:38.811Z,2.90
2022-08-23T00:10:09.828Z,2.30
2022-08-23T00:12:38.124Z,2.87
2022-08-23T00:15:07.716Z,3.40
2022-08-23T00:17:36.528Z,3.97
2022-08-23T00:20:06.471Z,3.23
2022-08-23T00:22:34.207Z,2.97
2022-08-23T00:25:01.968Z,3.07
2022-08-23T00:27:30.979Z,3.07
2022-08-23T00:29:59.013Z,2.80
2022-08-23T00:32:30.139Z,3.23
2022-08-23T00:34:58.437Z,3.47
2022-08-23T00:37:27.420Z,3.17
2022-08-23T00:39:55.213Z,3.10
2022-08-23T00:42:51.185Z,3.50
2022-08-23T00:45:41.490Z,2.70
2022-08-23T00:48:09.513Z,3.23
2022-08-23T00:50:41.882Z,4.10
2022-08-23T00:53:13.395Z,3.40
2022-08-23T00:55:43.948Z,3.60
2022-08-23T00:58:14.510Z,2.90
2022-08-23T01:00:42.232Z,3.57
2022-08-23T01:03:12.235Z,3.23
2022-08-23T01:05:57.685Z,3.20
2022-08-23T01:08:28.557Z,3.60
2022-08-23T01:11:00.367Z,3.07
2022-08-23T01:13:37.017Z,3.97
2022-08-23T01:16:08.538Z,4.00
2022-08-23T01:18:36.618Z,3.30
2022-08-23T01:21:13.451Z,3.60
2022-08-23T01:23:46.323Z,4.00
2022-08-23T01:26:21.983Z,3.30
2022-08-23T01:28:54.823Z,3.80
2022-08-23T01:31:25.016Z,4.10
2022-08-23T01:33:59.409Z,3.53
2022-08-23T01:36:27.917Z,3.47
2022-08-23T01:38:57.931Z,3.70
2022-08-23T01:41:25.633Z,3.53
2022-08-23T01:43:53.679Z,3.17
2022-08-23T01:46:26.132Z,3.60
2022-08-23T01:48:55.523Z,4.40
2022-08-23T01:51:24.965Z,3.47
2022-08-23T01:53:53.345Z,3.67
2022-08-23T01:56:38.231Z,4.13
2022-08-23T01:59:11.520Z,3.90
2022-08-23T02:01:48.860Z,3.50
2022-08-23T02:04:18.105Z,3.03
2022-08-23T02:06:47.233Z,3.70
2022-08-23T02:09:20.121Z,3.77
2022-08-23T02:11:50.074Z,3.80
2022-08-23T02:14:21.119Z,3.73
2022-08-23T02:17:04.389Z,3.80
2022-08-23T02:19:36.151Z,4.00
2022-08-23T02:22:05.378Z,4.07
2022-08-23T02:24:34.277Z,3.60
2022-08-23T02:27:06.098Z,3.43
2022-08-23T02:29:39.870Z,3.90
2022-08-23T02:32:10.867Z,3.20
2022-08-23T02:34:39.907Z,4.10
2022-08-23T02:37:09.281Z,3.87
2022-08-23T02:39:38.965Z,3.83
2022-08-23T02:42:11.564Z,4.20
2022-08-23T02:44:41.257Z,4.23
2022-08-23T02:47:09.334Z,4.10
2022-08-23T02:49:39.451Z,3.83
2022-08-23T02:52:08.529Z,4.20
2022-08-23T02:54:37.249Z,3.80
2022-08-23T02:57:05.944Z,3.77
2022-08-23T02:59:35.431Z,4.17
2022-08-23T03:02:03.368Z,3.40
2022-08-23T03:04:36.594Z,3.90
2022-08-23T03:07:04.641Z,3.83
2022-08-23T03:09:32.748Z,4.50
2022-08-23T03:12:00.678Z,3.77
2022-08-23T03:14:28.903Z,3.47
2022-08-23T03:17:00.464Z,4.40
2022-08-23T03:19:28.413Z,3.63
2022-08-23T03:21:57.130Z,4.37
2022-08-23T03:24:25.459Z,4.40
2022-08-23T03:26:53.337Z,4.27
2022-08-23T03:29:21.627Z,4.30
2022-08-23T03:32:11.049Z,3.83
2022-08-23T03:34:40.289Z,4.10
2022-08-23T03:37:10.404Z,5.03
2022-08-23T03:39:38.567Z,4.50
2022-08-23T03:42:06.723Z,4.07
2022-08-23T03:44:35.602Z,5.40
2022-08-23T03:47:03.470Z,4.70
2022-08-23T03:49:32.811Z,4.93
2022-08-23T03:52:01.295Z,4.67
2022-08-23T03:54:35.203Z,4.13
2022-08-23T03:57:09.360Z,5.83
2022-08-23T03:59:39.941Z,4.80
2022-08-23T04:02:11.129Z,5.20
2022-08-23T04:04:41.308Z,5.60
2022-08-23T04:07:21.712Z,5.07
2022-08-23T04:09:55.358Z,5.23
2022-08-23T04:12:26.449Z,4.77
2022-08-23T04:14:54.875Z,4.70
2022-08-23T04:17:24.272Z,4.23
2022-08-23T04:19:54.654Z,4.97
2022-08-23T04:22:22.630Z,4.03
2022-08-23T04:24:50.391Z,4.60
2022-08-23T04:27:18.685Z,5.23
2022-08-23T04:29:47.613Z,4.83
2022-08-23T04:32:26.665Z,5.43
2022-08-23T04:34:59.384Z,5.67
2022-08-23T04:37:28.599Z,5.27
2022-08-23T04:40:14.687Z,5.10
2022-08-23T04:42:43.730Z,6.03
2022-08-23T04:45:12.599Z,4.87
2022-08-23T04:47:44.782Z,5.10
2022-08-23T04:50:18.496Z,5.20
2022-08-23T04:53:09.181Z,4.70
2022-08-23T04:55:44.804Z,5.57
2022-08-23T04:58:12.564Z,6.00
2022-08-23T05:00:51.445Z,5.20
2022-08-23T05:03:23.914Z,5.50
2022-08-23T05:05:55.427Z,4.80
2022-08-23T05:08:29.411Z,4.70
2022-08-23T05:11:00.277Z,4.13
2022-08-23T05:13:28.062Z,4.27
2022-08-23T05:15:55.945Z,4.70
2022-08-23T05:18:28.506Z,5.57
2022-08-23T05:20:57.881Z,5.50
2022-08-23T05:23:31.994Z,5.90
2022-08-23T05:26:08.084Z,4.73
2022-08-23T05:28:42.907Z,4.97
2022-08-23T05:31:13.058Z,5.10
2022-08-23T05:33:46.744Z,4.60
2022-08-23T05:36:20.550Z,3.73
2022-08-23T05:38:49.433Z,5.30
2022-08-23T05:41:18.325Z,5.20
2022-08-23T05:43:50.463Z,5.10
2022-08-23T05:46:20.624Z,5.00
2022-08-23T05:48:58.618Z,5.03
2022-08-23T05:51:30.982Z,5.13
2022-08-23T05:54:01.282Z,5.37
2022-08-23T05:56:32.899Z,5.40
2022-08-23T05:59:05.686Z,5.80
2022-08-23T06:01:35.054Z,5.00
2022-08-23T06:04:13.133Z,5.87
2022-08-23T06:06:44.823Z,6.33
2022-08-23T06:09:14.834Z,6.07
2022-08-23T06:11:45.437Z,5.37
2022-08-23T06:14:14.964Z,5.10
2022-08-23T06:16:47.488Z,5.77
2022-08-23T06:19:19.685Z,5.33
2022-08-23T06:21:49.625Z,6.67
2022-08-23T06:24:24.331Z,5.40
2022-08-23T06:26:59.468Z,4.23
2022-08-23T06:29:27.304Z,4.47
2022-08-23T06:32:15.060Z,5.90
2022-08-23T06:35:38.678Z,4.87
2022-08-23T06:38:03.770Z,4.23
2022-08-23T06:40:46.927Z,4.00
2022-08-23T06:43:20.715Z,4.23
2022-08-23T06:46:09.291Z,4.27
2022-08-23T06:48:39.343Z,3.73
2022-08-23T06:51:12.509Z,4.00
2022-08-23T06:53:55.154Z,3.93
2022-08-23T06:56:52.385Z,3.67
2022-08-23T06:59:24.758Z,3.63
2022-08-23T07:02:15.960Z,4.10
2022-08-23T07:05:13.169Z,3.90
2022-08-23T07:07:52.653Z,3.90
2022-08-23T07:10:21.892Z,4.53
2022-08-23T07:12:50.520Z,3.60
2022-08-23T07:15:21.214Z,3.50
2022-08-23T07:17:50.732Z,3.70
2022-08-23T07:20:19.227Z,3.33
2022-08-23T07:22:46.993Z,3.03
2022-08-23T07:25:15.132Z,3.60
2022-08-23T07:27:48.904Z,3.23
2022-08-23T07:30:20.423Z,3.13
2022-08-23T07:32:49.087Z,2.80
2022-08-23T07:35:22.312Z,3.00
2022-08-23T07:37:52.682Z,3.07
2022-08-23T07:40:21.781Z,3.30
2022-08-23T07:42:57.027Z,2.70
2022-08-23T07:45:25.587Z,2.83
2022-08-23T07:47:57.802Z,2.73
2022-08-23T07:50:30.353Z,2.83
2022-08-23T07:53:01.135Z,1.70
2022-08-23T07:55:29.515Z,2.50
2022-08-23T07:58:26.707Z,2.37
2022-08-23T08:01:19.151Z,1.80
2022-08-23T08:03:54.007Z,2.10
2022-08-23T08:06:33.508Z,2.27
2022-08-23T08:09:01.302Z,2.27
2022-08-23T08:11:34.741Z,2.47
2022-08-23T08:14:08.147Z,2.03
2022-08-23T08:16:42.184Z,2.43
2022-08-23T08:19:15.111Z,2.40
2022-08-23T08:21:54.916Z,2.40
2022-08-23T08:24:34.005Z,3.10
2022-08-23T08:27:09.288Z,2.30
2022-08-23T08:29:38.513Z,2.40
2022-08-23T08:32:07.308Z,1.53
2022-08-23T08:34:41.565Z,2.70
2022-08-23T08:37:10.740Z,2.60
2022-08-23T08:39:45.286Z,2.13
2022-08-23T08:42:32.428Z,2.03
2022-08-23T08:45:06.376Z,2.50
2022-08-23T08:47:44.388Z,2.27
2022-08-23T08:50:17.127Z,1.90
2022-08-23T08:52:50.019Z,2.60
2022-08-23T08:55:33.954Z,2.20
2022-08-23T08:58:02.968Z,2.13
2022-08-23T09:00:35.408Z,2.00
2022-08-23T09:03:11.850Z,2.73
2022-08-23T09:05:47.023Z,1.83
2022-08-23T09:08:38.786Z,1.90
2022-08-23T09:11:17.567Z,1.93
2022-08-23T09:14:03.685Z,2.20
2022-08-23T09:16:44.969Z,1.97
2022-08-23T09:19:13.287Z,2.27
2022-08-23T09:21:49.398Z,1.70
2022-08-23T09:24:17.562Z,1.70
2022-08-23T09:26:56.268Z,2.10
2022-08-23T09:29:27.689Z,1.90
2022-08-23T09:32:02.095Z,2.07
2022-08-23T09:34:44.263Z,1.93
2022-08-23T09:37:18.927Z,2.00
2022-08-23T09:39:50.598Z,1.97
2022-08-23T09:42:30.657Z,1.43
2022-08-23T09:44:59.687Z,2.20
2022-08-23T09:47:36.749Z,2.03
2022-08-23T09:50:29.049Z,2.33
2022-08-23T09:53:00.517Z,1.73
2022-08-23T09:55:33.761Z,2.00
2022-08-23T09:58:04.909Z,1.90
2022-08-23T10:00:35.541Z,1.87
2022-08-23T10:03:29.956Z,2.10
2022-08-23T10:06:09.574Z,2.07
2022-08-23T10:08:53.007Z,1.87
2022-08-23T10:11:24.929Z,1.53
2022-08-23T10:13:54.172Z,1.27
2022-08-23T10:16:34.880Z,2.00
2022-08-23T10:19:20.986Z,1.50
2022-08-23T10:21:58.563Z,1.40
2022-08-23T10:24:40.070Z,1.90
2022-08-23T10:27:46.429Z,1.37
2022-08-23T10:30:17.855Z,2.07
2022-08-23T10:32:57.343Z,1.50
2022-08-23T10:35:40.312Z,1.90
2022-08-23T10:38:25.042Z,1.47
2022-08-23T10:41:03.951Z,2.47
2022-08-23T10:43:44.497Z,1.93
2022-08-23T10:46:12.967Z,2.00
2022-08-23T10:48:51.704Z,1.70
2022-08-23T10:51:32.058Z,2.17
2022-08-23T10:54:06.144Z,2.03
2022-08-23T10:56:35.348Z,1.60
2022-08-23T10:59:08.806Z,2.07
2022-08-23T11:01:46.236Z,1.80
2022-08-23T11:04:25.611Z,1.27
2022-08-23T11:07:20.449Z,1.60
2022-08-23T11:09:53.455Z,1.80
2022-08-23T11:12:26.989Z,1.37
2022-08-23T11:15:10.020Z,1.43
2022-08-23T11:17:56.638Z,1.73
2022-08-23T11:21:03.422Z,0.90
2022-08-23T11:23:47.304Z,1.03
2022-08-23T11:27:06.790Z,0.90
2022-08-23T11:29:43.716Z,1.20
2022-08-23T11:32:39.750Z,1.37
2022-08-23T11:35:13.592Z,1.70
2022-08-23T11:37:55.090Z,2.00
2022-08-23T11:41:00.174Z,1.10
2022-08-23T11:43:37.653Z,1.20
2022-08-23T11:46:32.116Z,1.20
2022-08-23T11:49:47.476Z,1.70
2022-08-23T11:52:38.085Z,1.13
2022-08-23T11:55:24.561Z,1.13
2022-08-23T11:58:05.850Z,1.50
2022-08-23T12:00:54.818Z,1.03
2022-08-23T12:03:26.347Z,1.30
2022-08-23T12:06:13.062Z,1.40
2022-08-23T12:09:01.933Z,1.20
2022-08-23T12:12:00.735Z,1.10
2022-08-23T12:14:49.584Z,1.10
2022-08-23T12:18:07.825Z,1.33
2022-08-23T12:20:38.489Z,1.87
2022-08-23T12:23:20.506Z,1.37
2022-08-23T12:25:59.730Z,1.40
2022-08-23T12:28:38.101Z,1.50
2022-08-23T12:31:19.379Z,1.43
2022-08-23T12:34:00.363Z,1.90
2022-08-23T12:36:37.048Z,1.60
2022-08-23T12:39:08.523Z,1.30
2022-08-23T12:41:51.815Z,1.40
2022-08-23T12:44:21.826Z,1.40
2022-08-23T12:46:52.195Z,1.47
2022-08-23T12:49:27.461Z,1.33
2022-08-23T12:51:57.989Z,1.50
2022-08-23T12:54:37.197Z,1.50
2022-08-23T12:57:11.863Z,1.10
2022-08-23T12:59:46.351Z,1.80
2022-08-23T13:02:21.890Z,1.40
2022-08-23T13:04:49.754Z,1.40
2022-08-23T13:07:22.997Z,1.60
2022-08-23T13:09:53.296Z,1.40
2022-08-23T13:12:23.649Z,1.30
2022-08-23T13:14:53.861Z,2.00
2022-08-23T13:17:32.782Z,1.20
2022-08-23T13:20:19.891Z,1.33
2022-08-23T13:22:59.034Z,1.00
2022-08-23T13:25:31.631Z,1.47
2022-08-23T13:28:02.261Z,1.67
2022-08-23T13:30:32.429Z,1.00
2022-08-23T13:33:23.101Z,0.97
2022-08-23T13:35:54.197Z,1.30
2022-08-23T13:38:25.865Z,0.80
2022-08-23T13:41:00.787Z,1.17
2022-08-23T13:43:33.674Z,1.10
2022-08-23T13:46:13.445Z,1.40
2022-08-23T13:48:48.929Z,1.00
2022-08-23T13:51:25.769Z,1.07
2022-08-23T13:53:53.915Z,0.87
2022-08-23T13:56:22.091Z,0.73
2022-08-23T13:58:56.521Z,0.77
2022-08-23T14:01:24.830Z,1.47
2022-08-23T14:03:53.950Z,1.80
2022-08-23T14:06:21.776Z,1.10
2022-08-23T14:08:49.540Z,0.83
2022-08-23T14:11:17.357Z,0.83
2022-08-23T14:13:47.919Z,1.03
2022-08-23T14:16:39.976Z,1.40
2022-08-23T14:19:18.098Z,0.90
2022-08-23T14:22:00.869Z,0.90
2022-08-23T14:24:29.630Z,0.97
2022-08-23T14:26:58.272Z,0.90
2022-08-23T14:29:28.903Z,0.70
2022-08-23T14:31:58.244Z,1.07
2022-08-23T14:34:28.292Z,1.33
2022-08-23T14:39:44.074Z,1.00
2022-08-23T14:42:14.018Z,2.77
2022-08-23T14:44:42.338Z,1.20
2022-08-23T14:47:09.984Z,1.10
2022-08-23T14:49:39.168Z,0.80
2022-08-23T14:52:07.038Z,1.80
2022-08-23T14:54:37.346Z,1.00
2022-08-23T14:57:05.520Z,1.10
2022-08-23T14:59:33.193Z,1.10
2022-08-23T15:02:01.125Z,1.30
2022-08-23T15:04:34.578Z,0.90
2022-08-23T15:07:17.598Z,1.27
2022-08-23T15:09:46.236Z,1.13
2022-08-23T15:15:01.546Z,7.67
2022-08-23T15:17:31.622Z,3.00
2022-08-23T15:19:59.773Z,1.23
2022-08-23T15:22:28.831Z,2.60
2022-08-23T15:24:56.518Z,1.13
2022-08-23T15:27:25.619Z,1.70
2022-08-23T15:29:53.785Z,1.30
2022-08-23T15:32:22.562Z,1.60
2022-08-23T15:34:50.463Z,1.70
2022-08-23T15:37:19.184Z,1.47
2022-08-23T15:39:48.306Z,1.10
2022-08-23T15:42:20.079Z,1.23
2022-08-23T15:44:48.600Z,2.17
2022-08-23T15:47:21.560Z,0.83
2022-08-23T15:49:49.810Z,1.37
2022-08-23T15:52:18.196Z,1.53
2022-08-23T15:54:45.931Z,1.00
2022-08-23T15:57:18.333Z,1.73
2022-08-23T15:59:46.327Z,1.50
2022-08-23T16:02:14.280Z,1.40
2022-08-23T16:04:42.034Z,1.70
2022-08-23T16:07:13.906Z,1.60
2022-08-23T16:09:42.098Z,1.70
2022-08-23T16:12:10.649Z,1.10
2022-08-23T16:14:39.674Z,1.47
2022-08-23T16:17:08.822Z,1.03
2022-08-23T16:19:36.920Z,1.70
2022-08-23T16:22:05.032Z,1.60
2022-08-23T16:24:32.767Z,1.43
2022-08-23T16:27:00.450Z,1.40
2022-08-23T16:29:33.174Z,1.00
2022-08-23T16:32:02.575Z,1.60
2022-08-23T16:34:30.288Z,1.60
2022-08-23T16:37:00.621Z,1.37
2022-08-23T16:39:29.652Z,1.53
2022-08-23T16:41:57.533Z,1.30
2022-08-23T16:44:25.346Z,1.73
2022-08-23T16:46:53.049Z,1.60
2022-08-23T16:49:22.236Z,1.30
2022-08-23T16:51:50.511Z,1.67
2022-08-23T16:54:19.518Z,1.40
2022-08-23T16:56:47.412Z,1.50
2022-08-23T16:59:15.460Z,1.57
2022-08-23T17:01:49.395Z,1.80
2022-08-23T17:04:18.405Z,1.53
2022-08-23T17:06:47.832Z,1.50
2022-08-23T17:09:15.630Z,1.60
2022-08-23T17:11:44.718Z,1.40
2022-08-23T17:14:13.206Z,1.50
2022-08-23T17:16:42.214Z,1.57
2022-08-23T17:19:09.941Z,1.80
2022-08-23T17:21:38.298Z,1.90
2022-08-23T17:24:08.110Z,1.37
2022-08-23T17:26:35.818Z,1.50
2022-08-23T17:29:04.677Z,1.87
2022-08-23T17:31:32.632Z,2.40
2022-08-23T17:34:03.765Z,1.90
2022-08-23T17:36:34.814Z,1.70
2022-08-23T17:39:04.095Z,1.20
2022-08-23T17:41:35.405Z,1.83
2022-08-23T17:44:03.711Z,1.47
2022-08-23T17:46:31.570Z,1.67
2022-08-23T17:48:59.451Z,1.60
2022-08-23T17:51:27.208Z,1.80
2022-08-23T17:53:54.926Z,1.83
2022-08-23T17:56:22.587Z,1.90
2022-08-23T17:58:51.761Z,2.40
2022-08-23T18:01:20.011Z,2.33
2022-08-23T18:03:47.680Z,2.73
2022-08-23T18:06:16.767Z,2.33
2022-08-23T18:08:45.971Z,1.67
2022-08-23T18:11:13.897Z,2.07
2022-08-23T18:13:41.548Z,2.10
2022-08-23T18:16:10.567Z,1.83
2022-08-23T18:18:38.537Z,2.70
2022-08-23T18:21:07.535Z,2.60
2022-08-23T18:23:35.611Z,3.20
2022-08-23T18:26:06.470Z,2.23
2022-08-23T18:28:33.208Z,2.60
2022-08-23T18:31:03.586Z,2.30
2022-08-23T18:33:47.061Z,2.83
2022-08-23T18:36:15.632Z,2.47
2022-08-23T18:38:43.322Z,2.00
2022-08-23T18:41:13.070Z,2.97
2022-08-23T18:43:41.557Z,2.83
2022-08-23T18:46:10.113Z,3.70
2022-08-23T18:48:40.103Z,3.07
2022-08-23T18:51:10.868Z,2.90
2022-08-23T18:53:45.731Z,3.13
2022-08-23T18:56:13.438Z,3.10
2022-08-23T18:58:41.126Z,2.73
2022-08-23T19:01:21.928Z,2.53
2022-08-23T19:03:51.767Z,2.63
2022-08-23T19:06:19.872Z,3.60
2022-08-23T19:08:48.721Z,3.40
2022-08-23T19:11:16.726Z,3.13
2022-08-23T19:13:44.492Z,3.10
2022-08-23T19:16:13.686Z,3.20
2022-08-23T19:18:42.035Z,3.93
2022-08-23T19:21:26.562Z,3.57
2022-08-23T19:23:57.209Z,4.23
2022-08-23T19:26:31.502Z,4.10
2022-08-23T19:29:00.527Z,3.73
2022-08-23T19:31:34.479Z,4.53
2022-08-23T19:34:05.418Z,4.40
2022-08-23T19:36:58.947Z,4.17
2022-08-23T19:39:24.536Z,3.80
2022-08-23T19:41:52.260Z,4.50
2022-08-23T19:44:21.147Z,5.40
2022-08-23T19:46:48.869Z,5.27
2022-08-23T19:49:16.919Z,4.73
2022-08-23T19:51:46.007Z,5.37
2022-08-23T19:54:13.736Z,5.67
2022-08-23T19:56:44.678Z,5.33
2022-08-23T19:59:15.923Z,5.40
2022-08-23T20:01:44.531Z,5.07
2022-08-23T20:04:12.669Z,5.67
2022-08-23T20:06:40.871Z,5.73
2022-08-23T20:09:10.414Z,5.87
2022-08-23T20:11:38.145Z,5.83
2022-08-23T20:14:06.767Z,4.73
2022-08-23T20:16:40.618Z,5.80
2022-08-23T20:19:09.726Z,5.83
2022-08-23T20:21:37.851Z,5.33
2022-08-23T20:24:05.480Z,4.43
2022-08-23T20:26:38.628Z,4.20
2022-08-23T20:29:06.609Z,4.27
2022-08-23T20:31:37.415Z,5.10
2022-08-23T20:34:07.534Z,5.43
2022-08-23T20:36:37.330Z,5.63
2022-08-23T20:39:05.979Z,6.00
2022-08-23T20:41:38.135Z,5.70
2022-08-23T20:44:06.859Z,4.20
2022-08-23T20:46:34.676Z,5.00
2022-08-23T20:49:02.434Z,4.73
2022-08-23T20:51:30.744Z,5.17
2022-08-23T20:54:04.582Z,5.77
2022-08-23T20:56:33.005Z,5.50
2022-08-23T20:59:02.229Z,5.37
2022-08-23T21:01:30.089Z,4.90
2022-08-23T21:03:58.026Z,5.70
2022-08-23T21:06:28.011Z,4.83
2022-08-23T21:08:58.578Z,4.27
2022-08-23T21:11:28.702Z,4.50
2022-08-23T21:13:58.503Z,5.10
2022-08-23T21:16:27.752Z,4.70
2022-08-23T21:18:56.824Z,5.53
2022-08-23T21:21:25.303Z,5.07
2022-08-23T21:23:54.097Z,4.73
2022-08-23T21:26:23.354Z,5.30
2022-08-23T21:28:51.769Z,5.43
2022-08-23T21:31:21.626Z,5.33
2022-08-23T21:33:50.994Z,5.67
2022-08-23T21:36:20.256Z,5.30
2022-08-23T21:38:48.451Z,5.77
2022-08-23T21:41:30.281Z,5.10
2022-08-23T21:43:57.936Z,5.23
2022-08-23T21:46:25.659Z,5.13
2022-08-23T21:48:55.077Z,5.10
2022-08-23T21:51:23.148Z,4.70
2022-08-23T21:53:50.985Z,4.90
2022-08-23T21:56:19.131Z,5.73
2022-08-23T21:58:46.949Z,5.57
2022-08-23T22:01:19.271Z,6.00
2022-08-23T22:03:46.961Z,5.63
2022-08-23T22:06:17.998Z,5.83
2022-08-23T22:08:46.948Z,5.10
2022-08-23T22:11:16.209Z,6.03
2022-08-23T22:13:44.786Z,5.70
2022-08-23T22:16:13.098Z,4.90
2022-08-23T22:18:41.142Z,4.20
2022-08-23T22:21:08.806Z,4.83
2022-08-23T22:23:41.908Z,5.07
2022-08-23T22:26:10.068Z,4.63
2022-08-23T22:28:37.738Z,5.67
2022-08-23T22:31:08.476Z,4.87
2022-08-23T22:33:36.188Z,4.80
2022-08-23T22:36:04.484Z,4.60
2022-08-23T22:38:32.172Z,4.70
2022-08-23T22:41:01.179Z,4.50
2022-08-23T22:43:28.946Z,4.40
2022-08-23T22:45:58.552Z,4.50
2022-08-23T22:48:29.578Z,4.70
2022-08-23T22:51:06.316Z,4.63
2022-08-23T22:53:34.050Z,4.80
2022-08-23T22:56:03.457Z,6.07
2022-08-23T22:58:31.253Z,4.60
2022-08-23T23:00:59.025Z,5.50
2022-08-23T23:03:27.231Z,5.80
2022-08-23T23:05:55.217Z,5.10
2022-08-23T23:08:28.772Z,5.23
2022-08-23T23:10:58.355Z,5.77
2022-08-23T23:13:29.361Z,4.93
2022-08-23T23:15:57.444Z,5.13
2022-08-23T23:18:27.403Z,5.17
2022-08-23T23:20:59.554Z,5.70
2022-08-23T23:23:28.225Z,5.60
2022-08-23T23:25:55.966Z,5.40
2022-08-23T23:28:23.780Z,5.73
2022-08-23T23:30:54.743Z,5.40
2022-08-23T23:33:23.615Z,5.40
2022-08-23T23:35:51.976Z,6.07
2022-08-23T23:38:19.815Z,5.27
2022-08-23T23:40:47.719Z,5.33
2022-08-23T23:43:15.432Z,5.80
2022-08-23T23:45:43.255Z,6.33
2022-08-23T23:48:12.693Z,5.73
2022-08-23T23:50:46.869Z,5.40
2022-08-23T23:53:15.004Z,5.90
2022-08-23T23:55:43.389Z,5.77
2022-08-23T23:58:11.211Z,5.90
